Decoded Metar for LCPH (PAPHOS in CYPRUS) (IATA:PFO) | Meteo·Mobile Aviation Weather
aviador You're here:

LCPH Decoded Metar

PAPHOS in CYPRUS
Report Time2019-07-16 11:30:00
UTC Time2019-07-16 12:02:55
Flight Rules vfr VFR
Wind240° at 09 kt
W.Decomp.*RWY 29: 5.3 kt HW 7.3 kt LCW
Visibility9999 m
Phenomena:N/A
Clouds:Few 020 Hf
Expected CloudBase > 3,200 ft AGL from Temp-Dew spread
CeilingNone
Temp29°C (ISA +14)
Dew Point21°C (62% RH)
Heat Index31.3°C
QNH1007 hPa
Density Alt2,169 ft
Elevation26 ft
Report Wrong Elevation
Raw Report
METAR LCPH 161130Z 24009KT 210V280 9999 FEW020 29/21 Q1007=

Extra information for LCPH:More info

Metar Taf Metar & Taf Last 4 Metars F.Rules Stats Wind Profile Meteogram Temp Stats Airport Information Weather charts Add Link Nearby VenuesMetar ALERT Operation Metar Decoded Social comments